createdAt,value
2022-11-23T00:05:03.837Z,23.4
2022-11-23T00:10:26.408Z,23.9
2022-11-23T00:15:50.265Z,23.8
2022-11-23T00:21:29.801Z,23.6
2022-11-23T00:27:07.866Z,23.4
2022-11-23T00:32:30.267Z,23.4
2022-11-23T00:38:08.297Z,23.3
2022-11-23T00:43:46.146Z,23.2
2022-11-23T00:49:09.066Z,23.6
2022-11-23T00:54:47.001Z,24
2022-11-23T01:00:25.134Z,23.7
2022-11-23T01:06:03.331Z,23.5
2022-11-23T01:11:42.023Z,23.4
2022-11-23T01:16:47.501Z,23.4
2022-11-23T01:21:53.820Z,23.3
2022-11-23T01:27:04.099Z,23.3
2022-11-23T01:32:02.144Z,23.9
2022-11-23T01:37:08.299Z,23.9
2022-11-23T01:42:18.612Z,23.7
2022-11-23T01:47:40.585Z,23.6
2022-11-23T01:53:02.153Z,23.4
2022-11-23T01:58:13.213Z,23.4
2022-11-23T02:03:20.174Z,23.3
2022-11-23T02:08:26.641Z,23.3
2022-11-23T02:14:04.450Z,23.8
2022-11-23T02:19:43.591Z,23.9
2022-11-23T02:25:20.242Z,23.6
2022-11-23T02:30:59.904Z,23.5
2022-11-23T02:36:37.168Z,23.4
2022-11-23T02:42:00.383Z,23.3
2022-11-23T02:47:38.011Z,23.3
2022-11-23T02:52:59.899Z,23.6
2022-11-23T02:58:37.190Z,23.9
2022-11-23T03:04:15.511Z,23.7
2022-11-23T03:09:52.540Z,23.5
2022-11-23T03:15:29.768Z,23.4
2022-11-23T03:20:52.220Z,23.3
2022-11-23T03:26:14.246Z,23.2
2022-11-23T03:31:51.612Z,23.4
2022-11-23T03:37:29.267Z,23.9
2022-11-23T03:43:07.562Z,23.8
2022-11-23T03:48:45.446Z,23.6
2022-11-23T03:54:23.472Z,23.4
2022-11-23T04:00:01.567Z,23.4
2022-11-23T04:05:39.930Z,23.3
2022-11-23T04:11:17.731Z,23.3
2022-11-23T04:16:55.546Z,23.9
2022-11-23T04:22:02.132Z,23.9
2022-11-23T04:27:43.573Z,23.7
2022-11-23T04:33:20.289Z,23.6
2022-11-23T04:38:26.686Z,23.4
2022-11-23T04:43:52.880Z,23.3
2022-11-23T04:49:30.503Z,23.2
2022-11-23T04:54:55.305Z,23.6
2022-11-23T05:00:32.982Z,24
2022-11-23T05:06:13.889Z,23.8
2022-11-23T05:11:51.988Z,23.6
2022-11-23T05:17:29.384Z,23.5
2022-11-23T05:23:06.873Z,23.4
2022-11-23T05:29:13.215Z,23.3
2022-11-23T05:34:35.985Z,23.4
2022-11-23T05:40:18.026Z,23.9
2022-11-23T05:45:11.629Z,23.8
2022-11-23T05:50:49.190Z,23.6
2022-11-23T05:56:11.115Z,23.4
2022-11-23T06:01:32.923Z,23.3
2022-11-23T06:07:12.866Z,23.3
2022-11-23T06:12:35.648Z,23.2
2022-11-23T06:17:58.133Z,23.5
2022-11-23T06:23:35.523Z,23.9
2022-11-23T06:29:14.911Z,23.8
2022-11-23T06:34:55.639Z,23.5
2022-11-23T06:40:35.629Z,23.3
2022-11-23T06:46:45.891Z,23.2
2022-11-23T06:52:29.085Z,23.1
2022-11-23T06:58:06.765Z,23.4
2022-11-23T07:03:44.764Z,23.9
2022-11-23T07:09:23.338Z,23.7
2022-11-23T07:15:01.642Z,23.4
2022-11-23T07:20:39.793Z,23.3
2022-11-23T07:26:22.443Z,23.2
2022-11-23T07:31:49.510Z,23.1
2022-11-23T07:37:33.160Z,23.3
2022-11-23T07:44:03.543Z,23.9
2022-11-23T07:49:43.685Z,23.8
2022-11-23T07:55:23.542Z,23.5
2022-11-23T08:01:01.027Z,23.3
2022-11-23T08:07:22.822Z,23.3
2022-11-23T08:13:05.427Z,23.2
2022-11-23T08:18:28.335Z,23.4
2022-11-23T08:24:12.016Z,23.9
2022-11-23T08:29:50.736Z,23.7
2022-11-23T08:35:28.950Z,23.5
2022-11-23T08:41:13.892Z,23.4
2022-11-23T08:46:57.161Z,23.3
2022-11-23T08:52:25.108Z,23.2
2022-11-23T08:58:02.927Z,23.3
2022-11-23T09:03:41.318Z,23.9
2022-11-23T09:09:25.339Z,23.8
2022-11-23T09:15:06.469Z,23.5
2022-11-23T09:20:48.543Z,23.4
2022-11-23T09:26:34.446Z,23.3
2022-11-23T09:32:17.987Z,23.2
2022-11-23T09:37:57.311Z,23.4
2022-11-23T09:44:00.355Z,24
2022-11-23T09:49:39.832Z,23.8
2022-11-23T09:55:17.606Z,23.6
2022-11-23T10:00:44.343Z,23.4
2022-11-23T10:06:23.157Z,23.3
2022-11-23T10:12:01.281Z,23.3
2022-11-23T10:17:43.934Z,23.6
2022-11-23T10:23:21.889Z,24
2022-11-23T10:29:00.052Z,23.8
2022-11-23T10:34:42.885Z,23.6
2022-11-23T10:40:27.656Z,23.4
2022-11-23T10:46:05.333Z,23.1
2022-11-23T10:51:43.715Z,23.1
2022-11-23T10:57:24.802Z,22.9
2022-11-23T11:03:03.355Z,22.9
2022-11-23T11:09:20.027Z,23.2
2022-11-23T11:15:09.885Z,23.7
2022-11-23T11:20:51.741Z,23.4
2022-11-23T11:26:30.059Z,23.3
2022-11-23T11:32:08.850Z,23.1
2022-11-23T11:37:51.648Z,23.1
2022-11-23T11:43:56.426Z,22.9
2022-11-23T11:50:03.926Z,22.9
2022-11-23T11:55:42.019Z,23
2022-11-23T12:01:11.158Z,23.4
2022-11-23T12:06:37.814Z,23.6
2022-11-23T12:12:15.629Z,23.4
2022-11-23T12:19:02.415Z,23.2
2022-11-23T12:23:55.081Z,23.1
2022-11-23T12:29:33.397Z,23
2022-11-23T12:35:11.364Z,22.9
2022-11-23T12:40:52.944Z,23
2022-11-23T12:46:20.730Z,23.3
2022-11-23T12:51:58.850Z,23.6
2022-11-23T12:57:38.172Z,23.4
2022-11-23T13:03:01.669Z,23.2
2022-11-23T13:08:59.706Z,23.1
2022-11-23T13:14:39.916Z,23
2022-11-23T13:20:07.025Z,22.9
2022-11-23T13:25:45.596Z,23
2022-11-23T13:32:04.708Z,23.3
2022-11-23T13:38:20.955Z,23.7
2022-11-23T13:44:02.748Z,23.4
2022-11-23T13:50:11.529Z,23.3
2022-11-23T13:55:54.340Z,23.1
2022-11-23T14:01:32.802Z,23.1
2022-11-23T14:07:17.733Z,22.9
2022-11-23T14:12:56.603Z,22.9
2022-11-23T14:18:35.083Z,23
2022-11-23T14:23:56.832Z,23.4
2022-11-23T14:29:58.082Z,23.6
2022-11-23T14:35:36.977Z,23.3
2022-11-23T14:41:19.478Z,23.2
2022-11-23T14:46:59.133Z,23.1
2022-11-23T14:52:37.580Z,22.9
2022-11-23T14:58:19.025Z,22.9
2022-11-23T15:04:25.793Z,22.8
2022-11-23T15:10:06.601Z,23
2022-11-23T15:15:28.675Z,23.6
2022-11-23T15:21:07.126Z,23.5
2022-11-23T15:27:15.861Z,23.3
2022-11-23T15:33:29.620Z,23.1
2022-11-23T15:38:40.568Z,23
2022-11-23T15:44:19.526Z,22.9
2022-11-23T15:50:00.377Z,22.8
2022-11-23T15:55:43.541Z,22.8
2022-11-23T16:01:23.797Z,22.9
2022-11-23T16:07:06.716Z,23.4
2022-11-23T16:13:20.042Z,23.4
2022-11-23T16:19:03.518Z,23.1
2022-11-23T16:24:48.401Z,23
2022-11-23T16:30:16.523Z,22.9
2022-11-23T16:35:55.463Z,22.8
2022-11-23T16:41:35.499Z,22.8
2022-11-23T16:47:17.911Z,22.8
2022-11-23T16:53:03.331Z,23
2022-11-23T16:59:18.637Z,23.4
2022-11-23T17:04:29.765Z,23.2
2022-11-23T17:10:14.930Z,23
2022-11-23T17:15:58.858Z,22.9
2022-11-23T17:21:43.821Z,22.8
2022-11-23T17:27:27.694Z,22.8
2022-11-23T17:33:06.167Z,22.7
2022-11-23T17:38:43.618Z,22.8
2022-11-23T17:44:22.666Z,23.3
2022-11-23T17:49:29.999Z,23.3
2022-11-23T17:55:07.569Z,23.1
2022-11-23T18:00:51.133Z,22.9
2022-11-23T18:06:14.495Z,22.8
2022-11-23T18:11:53.039Z,22.8
2022-11-23T18:17:31.979Z,22.7
2022-11-23T18:23:10.092Z,22.6
2022-11-23T18:28:52.667Z,22.8
2022-11-23T18:34:37.995Z,23.3
2022-11-23T18:40:20.000Z,23.3
2022-11-23T18:45:48.189Z,23
2022-11-23T18:51:14.079Z,22.9
2022-11-23T18:56:38.057Z,22.8
2022-11-23T19:02:51.205Z,22.7
2022-11-23T19:08:34.602Z,22.6
2022-11-23T19:14:13.972Z,22.6
2022-11-23T19:19:38.222Z,22.8
2022-11-23T19:25:21.781Z,23.3
2022-11-23T19:30:48.902Z,23.1
2022-11-23T19:35:57.784Z,22.9
2022-11-23T19:41:25.322Z,22.8
2022-11-23T19:47:13.831Z,22.8
2022-11-23T19:53:30.694Z,22.6
2022-11-23T19:58:54.109Z,22.6
2022-11-23T20:04:24.439Z,22.6
2022-11-23T20:10:04.597Z,23
2022-11-23T20:15:34.246Z,23.3
2022-11-23T20:21:16.599Z,23
2022-11-23T20:26:55.358Z,22.9
2022-11-23T20:32:38.825Z,22.8
2022-11-23T20:38:08.403Z,22.7
2022-11-23T20:43:31.588Z,22.6
2022-11-23T20:49:31.545Z,22.5
2022-11-23T20:55:10.870Z,22.6
2022-11-23T21:00:53.733Z,22.8
2022-11-23T21:06:37.294Z,23.3
2022-11-23T21:12:24.842Z,23.1
2022-11-23T21:18:20.373Z,22.9
2022-11-23T21:23:58.387Z,22.8
2022-11-23T21:29:36.370Z,22.6
2022-11-23T21:35:17.778Z,22.6
2022-11-23T21:40:44.605Z,22.4
2022-11-23T21:46:07.398Z,22.5
2022-11-23T21:51:15.177Z,22.8
2022-11-23T21:57:00.393Z,23.2
2022-11-23T22:02:28.498Z,23
2022-11-23T22:08:30.216Z,22.8
2022-11-23T22:13:53.725Z,22.6
2022-11-23T22:19:32.007Z,22.6
2022-11-23T22:25:10.161Z,22.5
2022-11-23T22:30:36.835Z,22.4
2022-11-23T22:36:00.320Z,22.4
2022-11-23T22:41:47.560Z,22.9
2022-11-23T22:47:29.522Z,23.4
2022-11-23T22:53:07.407Z,23.3
2022-11-23T22:58:33.620Z,23.1
2022-11-23T23:03:56.896Z,22.9
2022-11-23T23:09:34.952Z,22.8
2022-11-23T23:14:56.878Z,22.8
2022-11-23T23:20:35.160Z,23.3
2022-11-23T23:25:42.807Z,23.6
2022-11-23T23:31:20.252Z,23.4
2022-11-23T23:36:58.619Z,23.2
2022-11-23T23:42:35.920Z,23.1
2022-11-23T23:48:13.956Z,23
2022-11-23T23:53:51.980Z,22.9
2022-11-23T23:58:59.068Z,23.4
